createdAt,value
2023-02-04T00:01:31.254Z,3.50
2023-02-04T00:07:33.081Z,3.72
2023-02-04T00:13:38.072Z,3.78
2023-02-04T00:19:43.230Z,4.80
2023-02-04T00:25:45.100Z,4.13
2023-02-04T00:31:47.251Z,3.38
2023-02-04T00:37:49.180Z,4.20
2023-02-04T00:43:51.110Z,4.22
2023-02-04T00:49:52.968Z,3.33
2023-02-04T00:55:55.029Z,3.95
2023-02-04T01:01:57.079Z,4.70
2023-02-04T01:07:58.988Z,3.75
2023-02-04T01:14:00.883Z,4.03
2023-02-04T01:20:02.920Z,3.80
2023-02-04T01:26:07.255Z,3.75
2023-02-04T01:32:09.132Z,4.47
2023-02-04T01:38:11.075Z,4.60
2023-02-04T01:44:13.081Z,3.78
2023-02-04T01:50:16.784Z,3.28
2023-02-04T01:56:21.208Z,2.90
2023-02-04T02:02:41.740Z,2.65
2023-02-04T02:08:43.614Z,2.47
2023-02-04T02:14:45.510Z,2.60
2023-02-04T02:20:47.553Z,3.45
2023-02-04T02:26:49.349Z,2.67
2023-02-04T02:32:52.825Z,2.20
2023-02-04T02:38:56.006Z,2.13
2023-02-04T02:44:59.327Z,2.08
2023-02-04T02:51:01.427Z,1.67
2023-02-04T02:57:03.824Z,1.48
2023-02-04T03:03:11.579Z,1.50
2023-02-04T03:09:13.927Z,1.55
2023-02-04T03:15:16.216Z,1.50
2023-02-04T03:21:18.172Z,1.45
2023-02-04T03:27:20.431Z,1.30
2023-02-04T03:33:31.675Z,1.35
2023-02-04T03:39:36.292Z,1.30
2023-02-04T03:45:45.327Z,1.30
2023-02-04T03:51:47.701Z,0.95
2023-02-04T03:57:49.524Z,1.30
2023-02-04T04:03:51.414Z,1.83
2023-02-04T04:09:53.261Z,1.10
2023-02-04T04:15:55.184Z,1.30
2023-02-04T04:21:57.106Z,1.02
2023-02-04T04:28:00.152Z,1.40
2023-02-04T04:34:03.069Z,1.50
2023-02-04T04:40:05.274Z,1.70
2023-02-04T04:46:08.239Z,1.30
2023-02-04T04:52:10.789Z,1.48
2023-02-04T04:58:12.582Z,1.42
2023-02-04T05:04:14.332Z,1.48
2023-02-04T05:10:16.518Z,1.23
2023-02-04T05:16:18.507Z,1.40
2023-02-04T05:22:20.315Z,1.33
2023-02-04T05:28:22.186Z,1.13
2023-02-04T05:34:24.170Z,1.23
2023-02-04T05:40:26.023Z,1.52
2023-02-04T05:46:27.881Z,2.28
2023-02-04T05:52:29.811Z,2.15
2023-02-04T05:58:33.674Z,1.40
2023-02-04T06:04:35.603Z,1.27
2023-02-04T06:10:37.502Z,1.70
2023-02-04T06:16:39.357Z,1.58
2023-02-04T06:22:41.513Z,1.77
2023-02-04T06:28:43.702Z,1.52
2023-02-04T06:34:48.271Z,1.40
2023-02-04T06:40:53.699Z,1.60
2023-02-04T06:46:55.589Z,1.27
2023-02-04T06:52:57.413Z,1.25
2023-02-04T06:58:59.336Z,1.65
2023-02-04T07:05:01.335Z,1.48
2023-02-04T07:11:03.202Z,1.55
2023-02-04T07:17:05.139Z,1.60
2023-02-04T07:23:06.954Z,1.77
2023-02-04T07:29:17.360Z,1.42
2023-02-04T07:35:22.595Z,1.90
2023-02-04T07:41:24.541Z,2.13
2023-02-04T07:47:26.270Z,2.35
2023-02-04T07:53:27.981Z,1.77
2023-02-04T07:59:29.725Z,1.92
2023-02-04T08:05:31.524Z,1.90
2023-02-04T08:11:33.269Z,1.80
2023-02-04T08:17:35.915Z,1.50
2023-02-04T08:23:41.739Z,2.15
2023-02-04T08:29:43.497Z,1.73
2023-02-04T08:35:45.254Z,2.03
2023-02-04T08:41:49.129Z,1.50
2023-02-04T08:47:50.929Z,1.40
2023-02-04T08:53:52.872Z,1.20
2023-02-04T08:59:54.672Z,1.30
2023-02-04T09:05:56.401Z,1.70
2023-02-04T09:11:58.192Z,1.95
2023-02-04T09:18:11.354Z,1.42
2023-02-04T09:24:13.165Z,1.30
2023-02-04T09:30:15.277Z,1.33
2023-02-04T09:36:17.504Z,1.60
2023-02-04T09:42:21.104Z,1.48
2023-02-04T09:48:24.345Z,1.30
2023-02-04T09:54:26.202Z,1.50
2023-02-04T10:00:30.944Z,1.58
2023-02-04T10:06:33.127Z,1.30
2023-02-04T10:12:35.116Z,1.38
2023-02-04T10:18:38.075Z,1.27
2023-02-04T10:24:40.134Z,1.30
2023-02-04T10:30:43.737Z,1.17
2023-02-04T10:36:48.477Z,1.53
2023-02-04T10:42:51.745Z,1.40
2023-02-04T10:48:53.540Z,1.33
2023-02-04T10:54:55.408Z,0.93
2023-02-04T11:00:58.026Z,0.88
2023-02-04T11:06:59.919Z,1.23
2023-02-04T11:13:04.983Z,0.93
2023-02-04T11:19:13.101Z,0.90
2023-02-04T11:25:35.306Z,0.90
2023-02-04T11:31:46.879Z,1.20
2023-02-04T11:37:49.243Z,1.02
2023-02-04T11:43:53.192Z,1.10
2023-02-04T11:50:01.756Z,1.00
2023-02-04T11:56:03.806Z,1.10
2023-02-04T12:02:17.455Z,1.15
2023-02-04T12:08:39.542Z,1.17
2023-02-04T12:14:42.305Z,1.08
2023-02-04T12:20:44.300Z,0.93
2023-02-04T12:26:46.065Z,1.02
2023-02-04T12:32:48.028Z,1.10
2023-02-04T12:38:49.777Z,1.10
2023-02-04T12:44:51.775Z,0.90
2023-02-04T12:50:53.557Z,1.02
2023-02-04T12:56:58.275Z,1.00
2023-02-04T13:03:00.438Z,0.98
2023-02-04T13:09:02.353Z,0.80
2023-02-04T13:15:04.871Z,0.80
2023-02-04T13:21:06.602Z,1.00
2023-02-04T13:27:08.407Z,1.02
2023-02-04T13:33:10.198Z,1.00
2023-02-04T13:39:12.380Z,0.73
2023-02-04T13:45:16.340Z,1.08
2023-02-04T13:51:18.663Z,0.98
2023-02-04T13:57:21.348Z,1.05
2023-02-04T14:03:26.494Z,0.90
2023-02-04T14:09:28.226Z,1.00
2023-02-04T14:15:29.944Z,1.25
2023-02-04T14:21:31.805Z,1.25
2023-02-04T14:27:35.404Z,1.00
2023-02-04T14:33:40.033Z,1.00
2023-02-04T14:45:43.685Z,1.20
2023-02-04T14:51:45.503Z,1.45
2023-02-04T14:57:47.265Z,1.20
2023-02-04T15:03:49.022Z,1.48
2023-02-04T15:09:51.007Z,1.30
2023-02-04T15:15:52.787Z,1.45
2023-02-04T15:21:54.729Z,1.40
2023-02-04T15:27:56.881Z,1.38
2023-02-04T15:33:58.744Z,1.88
2023-02-04T15:40:00.918Z,1.70
2023-02-04T15:46:03.052Z,1.60
2023-02-04T15:52:07.136Z,2.00
2023-02-04T15:58:13.458Z,1.75
2023-02-04T16:04:15.617Z,1.63
2023-02-04T16:10:18.566Z,2.50
2023-02-04T16:16:20.421Z,1.85
2023-02-04T16:22:22.250Z,2.60
2023-02-04T16:28:25.179Z,3.40
2023-02-04T16:34:27.144Z,2.60
2023-02-04T16:40:28.861Z,3.80
2023-02-04T16:46:33.646Z,2.40
2023-02-04T16:52:35.569Z,1.98
2023-02-04T16:58:38.561Z,1.92
2023-02-04T17:04:40.395Z,1.50
2023-02-04T17:11:01.063Z,1.83
2023-02-04T17:17:03.152Z,2.42
2023-02-04T17:23:05.176Z,2.45
2023-02-04T17:29:12.817Z,2.53
2023-02-04T17:35:15.059Z,2.70
2023-02-04T17:41:17.624Z,2.42
2023-02-04T17:47:19.676Z,2.80
2023-02-04T17:53:21.523Z,2.55
2023-02-04T17:59:24.094Z,2.25
2023-02-04T18:05:28.252Z,1.83
2023-02-04T18:11:35.894Z,1.77
2023-02-04T18:17:37.683Z,2.20
2023-02-04T18:23:39.460Z,2.22
2023-02-04T18:29:45.261Z,2.50
2023-02-04T18:35:50.325Z,2.40
2023-02-04T18:41:52.592Z,2.90
2023-02-04T18:47:56.598Z,3.70
2023-02-04T18:54:28.564Z,2.60
2023-02-04T19:00:32.911Z,2.95
2023-02-04T19:06:40.348Z,2.85
2023-02-04T19:12:42.179Z,2.63
2023-02-04T19:18:44.066Z,2.97
2023-02-04T19:25:06.079Z,3.78
2023-02-04T19:31:08.562Z,3.28
2023-02-04T19:37:40.313Z,3.80
2023-02-04T19:43:42.121Z,4.18
2023-02-04T19:49:43.996Z,3.60
2023-02-04T19:55:48.120Z,3.30
2023-02-04T20:02:02.588Z,3.13
2023-02-04T20:08:42.265Z,3.30
2023-02-04T20:14:47.262Z,3.38
2023-02-04T20:20:49.174Z,3.08
2023-02-04T20:26:52.623Z,2.97
2023-02-04T20:32:57.110Z,3.30
2023-02-04T20:39:26.421Z,13.88
2023-02-04T20:45:38.550Z,3.38
2023-02-04T20:51:40.293Z,5.05
2023-02-04T20:57:42.028Z,5.22
2023-02-04T21:03:45.736Z,7.35
2023-02-04T21:09:48.530Z,3.83
2023-02-04T21:15:50.749Z,3.28
2023-02-04T21:21:52.555Z,2.25
2023-02-04T21:27:54.864Z,2.30
2023-02-04T21:33:57.190Z,2.13
2023-02-04T21:39:58.892Z,2.50
2023-02-04T21:46:00.856Z,2.25
2023-02-04T21:52:02.686Z,2.58
2023-02-04T21:58:04.949Z,2.20
2023-02-04T22:04:06.828Z,2.25
2023-02-04T22:10:12.851Z,2.50
2023-02-04T22:16:14.885Z,2.30
2023-02-04T22:22:16.758Z,1.92
2023-02-04T22:28:18.565Z,1.90
2023-02-04T22:34:20.785Z,1.55
2023-02-04T22:40:22.466Z,1.55
2023-02-04T22:46:24.448Z,1.75
2023-02-04T22:52:26.396Z,1.45
2023-02-04T22:58:28.440Z,2.00
2023-02-04T23:04:30.474Z,2.17
2023-02-04T23:10:32.324Z,1.70
2023-02-04T23:16:34.587Z,1.80
2023-02-04T23:22:36.370Z,1.80
2023-02-04T23:28:38.229Z,1.73
2023-02-04T23:34:40.047Z,1.60
2023-02-04T23:40:41.910Z,2.22
2023-02-04T23:46:43.738Z,1.98
2023-02-04T23:52:45.483Z,2.10
2023-02-04T23:58:47.276Z,1.85
